createdAt,value
2022-09-13T00:00:51.278Z,100.00
2022-09-13T00:03:18.365Z,100.00
2022-09-13T00:05:45.028Z,100.00
2022-09-13T00:08:11.797Z,100.00
2022-09-13T00:10:40.810Z,100.00
2022-09-13T00:13:08.379Z,100.00
2022-09-13T00:15:36.727Z,100.00
2022-09-13T00:18:03.697Z,100.00
2022-09-13T00:20:30.650Z,100.00
2022-09-13T00:22:57.236Z,100.00
2022-09-13T00:25:23.871Z,100.00
2022-09-13T00:27:50.510Z,100.00
2022-09-13T00:30:17.154Z,100.00
2022-09-13T00:32:43.730Z,100.00
2022-09-13T00:35:10.328Z,100.00
2022-09-13T00:37:36.937Z,100.00
2022-09-13T00:40:04.123Z,100.00
2022-09-13T00:42:35.083Z,100.00
2022-09-13T00:45:02.641Z,100.00
2022-09-13T00:47:38.215Z,100.00
2022-09-13T00:50:15.436Z,100.00
2022-09-13T00:52:46.864Z,100.00
2022-09-13T00:55:25.747Z,100.00
2022-09-13T00:57:54.086Z,100.00
2022-09-13T01:00:20.962Z,100.00
2022-09-13T01:02:54.521Z,100.00
2022-09-13T01:05:26.485Z,100.00
2022-09-13T01:07:53.880Z,100.00
2022-09-13T01:10:20.948Z,100.00
2022-09-13T01:12:53.777Z,100.00
2022-09-13T01:15:20.623Z,100.00
2022-09-13T01:17:48.047Z,100.00
2022-09-13T01:20:15.036Z,100.00
2022-09-13T01:23:03.241Z,100.00
2022-09-13T01:26:03.972Z,100.00
2022-09-13T01:28:48.462Z,100.00
2022-09-13T01:31:38.029Z,100.00
2022-09-13T01:34:28.399Z,100.00
2022-09-13T01:37:00.984Z,100.00
2022-09-13T01:39:34.419Z,100.00
2022-09-13T01:42:28.830Z,100.00
2022-09-13T01:45:23.652Z,100.00
2022-09-13T01:48:14.077Z,100.00
2022-09-13T01:50:46.414Z,100.00
2022-09-13T01:53:30.613Z,100.00
2022-09-13T01:56:26.939Z,100.00
2022-09-13T01:59:12.115Z,100.00
2022-09-13T02:01:42.829Z,100.00
2022-09-13T02:04:23.658Z,100.00
2022-09-13T02:06:56.935Z,100.00
2022-09-13T02:09:27.419Z,100.00
2022-09-13T02:11:56.378Z,100.00
2022-09-13T02:14:35.577Z,100.00
2022-09-13T02:17:08.888Z,100.00
2022-09-13T02:19:43.866Z,100.00
2022-09-13T02:22:15.888Z,100.00
2022-09-13T02:24:47.346Z,100.00
2022-09-13T02:27:19.629Z,100.00
2022-09-13T02:29:51.057Z,100.00
2022-09-13T02:32:23.437Z,100.00
2022-09-13T02:34:57.416Z,100.00
2022-09-13T02:37:29.028Z,100.00
2022-09-13T02:40:02.662Z,100.00
2022-09-13T02:42:41.995Z,100.00
2022-09-13T02:45:10.179Z,100.00
2022-09-13T02:47:48.946Z,100.00
2022-09-13T02:50:21.381Z,100.00
2022-09-13T02:52:54.254Z,100.00
2022-09-13T02:55:39.195Z,100.00
2022-09-13T02:58:43.615Z,100.00
2022-09-13T03:01:10.464Z,100.00
2022-09-13T03:03:37.282Z,100.00
2022-09-13T03:06:04.338Z,100.00
2022-09-13T03:08:31.456Z,100.00
2022-09-13T03:11:45.351Z,100.00
2022-09-13T03:14:19.517Z,100.00
2022-09-13T03:17:10.565Z,100.00
2022-09-13T03:20:12.406Z,100.00
2022-09-13T03:23:16.948Z,100.00
2022-09-13T03:26:25.513Z,100.00
2022-09-13T03:29:01.419Z,100.00
2022-09-13T03:31:30.586Z,100.00
2022-09-13T03:34:10.464Z,100.00
2022-09-13T03:36:37.024Z,100.00
2022-09-13T03:39:15.216Z,100.00
2022-09-13T03:41:47.111Z,100.00
2022-09-13T03:44:17.295Z,100.00
2022-09-13T03:46:52.263Z,100.00
2022-09-13T03:49:23.027Z,100.00
2022-09-13T03:51:51.396Z,100.00
2022-09-13T03:54:24.629Z,100.00
2022-09-13T03:57:09.811Z,100.00
2022-09-13T03:59:39.215Z,100.00
2022-09-13T04:02:11.798Z,100.00
2022-09-13T04:04:42.748Z,100.00
2022-09-13T04:07:11.351Z,100.00
2022-09-13T04:09:38.456Z,100.00
2022-09-13T04:12:05.361Z,100.00
2022-09-13T04:14:32.171Z,100.00
2022-09-13T04:16:58.856Z,100.00
2022-09-13T04:19:26.267Z,100.00
2022-09-13T04:21:54.789Z,100.00
2022-09-13T04:24:25.254Z,100.00
2022-09-13T04:26:52.217Z,100.00
2022-09-13T04:29:18.829Z,100.00
2022-09-13T04:31:46.206Z,100.00
2022-09-13T04:34:13.096Z,100.00
2022-09-13T04:36:40.401Z,100.00
2022-09-13T04:39:08.284Z,100.00
2022-09-13T04:41:34.937Z,100.00
2022-09-13T04:44:02.638Z,100.00
2022-09-13T04:46:29.666Z,100.00
2022-09-13T04:48:56.359Z,100.00
2022-09-13T04:51:23.645Z,100.00
2022-09-13T04:53:55.440Z,100.00
2022-09-13T04:56:23.558Z,100.00
2022-09-13T04:58:56.767Z,100.00
2022-09-13T05:01:27.665Z,100.00
2022-09-13T05:03:55.415Z,100.00
2022-09-13T05:06:22.881Z,100.00
2022-09-13T05:08:55.276Z,100.00
2022-09-13T05:11:24.054Z,100.00
2022-09-13T05:13:55.391Z,100.00
2022-09-13T05:16:27.070Z,100.00
2022-09-13T05:18:54.077Z,100.00
2022-09-13T05:21:21.577Z,100.00
2022-09-13T05:23:54.022Z,100.00
2022-09-13T05:26:23.075Z,100.00
2022-09-13T05:28:49.806Z,100.00
2022-09-13T05:31:26.075Z,100.00
2022-09-13T05:33:55.984Z,100.00
2022-09-13T05:36:22.831Z,100.00
2022-09-13T05:38:55.081Z,100.00
2022-09-13T05:41:33.715Z,92.29
2022-09-13T05:44:06.807Z,82.29
2022-09-13T05:46:37.093Z,69.84
2022-09-13T05:49:03.763Z,60.54
2022-09-13T05:51:31.077Z,55.14
2022-09-13T05:53:58.409Z,49.86
2022-09-13T05:56:27.801Z,47.46
2022-09-13T05:58:55.344Z,48.04
2022-09-13T06:01:25.227Z,44.74
2022-09-13T06:03:52.982Z,43.13
2022-09-13T06:06:20.526Z,42.26
2022-09-13T06:08:47.504Z,41.24
2022-09-13T06:11:15.329Z,43.53
2022-09-13T06:13:43.351Z,42.69
2022-09-13T06:16:12.523Z,38.12
2022-09-13T06:18:39.364Z,38.48
2022-09-13T06:21:33.800Z,37.63
2022-09-13T06:24:00.399Z,34.18
2022-09-13T06:26:28.381Z,37.85
2022-09-13T06:28:57.513Z,34.42
2022-09-13T06:31:27.394Z,32.98
2022-09-13T06:34:00.929Z,32.28
2022-09-13T06:36:28.159Z,30.91
2022-09-13T06:38:54.808Z,30.90
2022-09-13T06:41:23.400Z,31.22
2022-09-13T06:43:54.980Z,30.23
2022-09-13T06:46:25.180Z,30.55
2022-09-13T06:48:52.725Z,30.91
2022-09-13T06:51:23.199Z,31.56
2022-09-13T06:53:50.473Z,30.58
2022-09-13T06:56:20.483Z,30.09
2022-09-13T06:58:50.235Z,35.35
2022-09-13T07:01:20.212Z,34.44
2022-09-13T07:03:48.892Z,32.02
2022-09-13T07:06:25.331Z,31.84
2022-09-13T07:08:52.918Z,30.53
2022-09-13T07:11:21.781Z,33.44
2022-09-13T07:13:50.002Z,33.85
2022-09-13T07:16:17.536Z,35.06
2022-09-13T07:18:44.115Z,34.51
2022-09-13T07:21:12.024Z,34.75
2022-09-13T07:23:40.110Z,34.48
2022-09-13T07:26:07.988Z,39.03
2022-09-13T07:28:43.398Z,38.15
2022-09-13T07:31:20.712Z,36.43
2022-09-13T07:33:48.903Z,37.67
2022-09-13T07:36:15.471Z,38.30
2022-09-13T07:38:46.797Z,38.78
2022-09-13T07:41:16.110Z,42.31
2022-09-13T07:43:43.400Z,41.84
2022-09-13T07:46:13.981Z,41.77
2022-09-13T07:48:42.985Z,40.72
2022-09-13T07:51:11.177Z,40.78
2022-09-13T07:53:39.229Z,40.72
2022-09-13T07:56:11.862Z,42.72
2022-09-13T07:58:39.835Z,43.00
2022-09-13T08:01:38.843Z,44.16
2022-09-13T08:04:08.593Z,42.17
2022-09-13T08:06:36.997Z,44.49
2022-09-13T08:09:05.062Z,45.30
2022-09-13T08:11:43.625Z,46.06
2022-09-13T08:14:12.769Z,44.50
2022-09-13T08:16:39.957Z,45.40
2022-09-13T08:19:07.796Z,44.17
2022-09-13T08:21:39.435Z,46.15
2022-09-13T08:24:08.787Z,45.92
2022-09-13T08:26:36.481Z,47.49
2022-09-13T08:29:05.772Z,45.60
2022-09-13T08:31:32.974Z,44.30
2022-09-13T08:33:59.856Z,45.38
2022-09-13T08:36:28.654Z,43.35
2022-09-13T08:38:59.080Z,46.12
2022-09-13T08:41:35.022Z,45.75
2022-09-13T08:44:29.581Z,44.58
2022-09-13T08:47:30.052Z,44.46
2022-09-13T08:50:09.295Z,45.02
2022-09-13T08:52:47.286Z,44.24
2022-09-13T08:55:39.877Z,43.24
2022-09-13T08:58:09.509Z,42.60
2022-09-13T09:00:41.065Z,45.16
2022-09-13T09:03:14.533Z,44.73
2022-09-13T09:05:50.227Z,42.96
2022-09-13T09:08:42.114Z,41.17
2022-09-13T09:11:23.296Z,42.90
2022-09-13T09:14:11.793Z,44.18
2022-09-13T09:16:51.416Z,43.05
2022-09-13T09:19:31.024Z,42.77
2022-09-13T09:21:59.432Z,42.96
2022-09-13T09:24:26.277Z,41.83
2022-09-13T09:26:56.978Z,43.51
2022-09-13T09:29:28.274Z,41.81
2022-09-13T09:32:00.670Z,44.27
2022-09-13T09:34:31.257Z,44.69
2022-09-13T09:37:00.897Z,41.77
2022-09-13T09:39:33.296Z,42.77
2022-09-13T09:42:00.545Z,40.22
2022-09-13T09:44:31.444Z,42.09
2022-09-13T09:47:03.043Z,42.38
2022-09-13T09:49:57.969Z,43.17
2022-09-13T09:52:31.661Z,41.44
2022-09-13T09:55:05.049Z,42.23
2022-09-13T09:57:50.487Z,42.50
2022-09-13T10:00:18.551Z,42.87
2022-09-13T10:02:47.372Z,40.03
2022-09-13T10:05:20.025Z,40.79
2022-09-13T10:07:55.811Z,40.07
2022-09-13T10:10:34.678Z,39.37
2022-09-13T10:13:02.053Z,40.87
2022-09-13T10:15:35.582Z,38.52
2022-09-13T10:18:03.845Z,36.76
2022-09-13T10:20:31.555Z,38.08
2022-09-13T10:23:16.388Z,39.34
2022-09-13T10:25:48.020Z,39.48
2022-09-13T10:28:19.218Z,41.51
2022-09-13T10:30:53.375Z,39.43
2022-09-13T10:33:30.738Z,38.04
2022-09-13T10:36:05.790Z,40.08
2022-09-13T10:38:36.285Z,39.12
2022-09-13T10:41:06.592Z,38.53
2022-09-13T10:43:34.178Z,38.08
2022-09-13T10:46:04.699Z,36.43
2022-09-13T10:48:46.732Z,36.57
2022-09-13T10:51:36.906Z,39.58
2022-09-13T10:54:10.745Z,39.52
2022-09-13T10:56:37.872Z,36.94
2022-09-13T10:59:33.741Z,37.50
2022-09-13T11:02:55.534Z,35.99
2022-09-13T11:05:24.876Z,37.66
2022-09-13T11:08:20.259Z,36.98
2022-09-13T11:11:13.610Z,37.81
2022-09-13T11:14:01.880Z,38.86
2022-09-13T11:16:51.582Z,36.45
2022-09-13T11:19:30.228Z,37.33
2022-09-13T11:22:24.399Z,35.78
2022-09-13T11:25:15.139Z,37.43
2022-09-13T11:28:07.917Z,37.34
2022-09-13T11:30:57.680Z,39.89
2022-09-13T11:33:27.260Z,39.28
2022-09-13T11:36:31.344Z,36.86
2022-09-13T11:39:08.283Z,35.96
2022-09-13T11:41:45.412Z,36.76
2022-09-13T11:45:09.624Z,33.72
2022-09-13T11:47:51.207Z,35.72
2022-09-13T11:50:42.171Z,32.62
2022-09-13T11:53:39.366Z,33.89
2022-09-13T11:56:19.786Z,32.91
2022-09-13T11:58:57.383Z,32.79
2022-09-13T12:01:31.834Z,34.87
2022-09-13T12:04:25.633Z,34.04
2022-09-13T12:07:00.253Z,37.02
2022-09-13T12:09:33.112Z,35.36
2022-09-13T12:12:06.268Z,37.90
2022-09-13T12:15:05.443Z,35.30
2022-09-13T12:17:45.694Z,37.91
2022-09-13T12:20:32.993Z,35.85
2022-09-13T12:23:03.111Z,35.61
2022-09-13T12:25:56.131Z,35.26
2022-09-13T12:28:28.068Z,35.09
2022-09-13T12:31:19.609Z,34.36
2022-09-13T12:33:47.817Z,36.41
2022-09-13T12:36:20.549Z,35.43
2022-09-13T12:39:21.973Z,37.92
2022-09-13T12:42:18.173Z,37.04
2022-09-13T12:45:08.693Z,38.14
2022-09-13T12:47:50.478Z,36.29
2022-09-13T12:50:43.089Z,36.06
2022-09-13T12:53:28.307Z,35.93
2022-09-13T12:56:24.313Z,37.45
2022-09-13T12:59:20.744Z,38.31
2022-09-13T13:01:50.231Z,36.81
2022-09-13T13:04:30.536Z,37.26
2022-09-13T13:07:06.859Z,38.33
2022-09-13T13:09:44.533Z,37.77
2022-09-13T13:12:26.218Z,38.16
2022-09-13T13:14:53.803Z,39.16
2022-09-13T13:17:38.791Z,38.07
2022-09-13T13:20:42.916Z,39.87
2022-09-13T13:23:23.803Z,37.82
2022-09-13T13:26:02.708Z,37.27
2022-09-13T13:28:44.768Z,37.32
2022-09-13T13:31:27.840Z,38.46
2022-09-13T13:34:24.090Z,36.05
2022-09-13T13:36:59.412Z,35.61
2022-09-13T13:39:26.013Z,37.27
2022-09-13T13:41:55.256Z,37.50
2022-09-13T13:44:21.911Z,35.89
2022-09-13T13:47:08.664Z,36.73
2022-09-13T13:49:41.032Z,35.48
2022-09-13T13:52:22.587Z,35.73
2022-09-13T13:54:55.176Z,36.54
2022-09-13T13:57:43.578Z,36.27
2022-09-13T14:00:17.742Z,34.66
2022-09-13T14:02:50.281Z,35.20
2022-09-13T14:05:27.719Z,35.66
2022-09-13T14:08:13.179Z,37.23
2022-09-13T14:10:52.464Z,36.75
2022-09-13T14:13:26.128Z,38.19
2022-09-13T14:16:23.823Z,36.99
2022-09-13T14:19:29.987Z,38.44
2022-09-13T14:22:13.674Z,36.73
2022-09-13T14:25:02.265Z,36.84
2022-09-13T14:27:35.921Z,38.25
2022-09-13T14:30:05.905Z,36.89
2022-09-13T14:32:42.306Z,37.05
2022-09-13T14:35:26.096Z,38.52
2022-09-13T14:37:52.900Z,37.54
2022-09-13T14:40:30.507Z,39.11
2022-09-13T14:42:57.124Z,40.73
2022-09-13T14:45:30.163Z,40.57
2022-09-13T14:48:15.066Z,40.42
2022-09-13T14:50:58.341Z,40.49
2022-09-13T14:53:28.334Z,39.05
2022-09-13T14:56:02.681Z,40.49
2022-09-13T14:58:47.976Z,42.28
2022-09-13T15:01:17.936Z,41.31
2022-09-13T15:03:46.552Z,42.70
2022-09-13T15:06:24.122Z,42.57
2022-09-13T15:08:53.016Z,43.08
2022-09-13T15:11:32.976Z,42.88
2022-09-13T15:14:27.826Z,44.38
2022-09-13T15:17:03.036Z,45.51
2022-09-13T15:19:35.507Z,45.81
2022-09-13T15:22:05.243Z,45.33
2022-09-13T15:24:34.394Z,45.32
2022-09-13T15:27:06.358Z,45.17
2022-09-13T15:29:35.020Z,45.67
2022-09-13T15:32:06.638Z,45.37
2022-09-13T15:34:33.196Z,46.19
2022-09-13T15:37:10.466Z,45.62
2022-09-13T15:39:48.419Z,47.27
2022-09-13T15:42:17.123Z,48.02
2022-09-13T15:44:43.997Z,48.03
2022-09-13T15:47:16.653Z,48.25
2022-09-13T15:49:52.318Z,48.52
2022-09-13T15:52:20.400Z,49.67
2022-09-13T15:54:49.765Z,49.46
2022-09-13T15:57:27.999Z,50.40
2022-09-13T15:59:56.769Z,52.06
2022-09-13T16:02:28.786Z,51.29
2022-09-13T16:04:56.084Z,51.21
2022-09-13T16:07:24.317Z,52.08
2022-09-13T16:09:51.465Z,53.72
2022-09-13T16:12:24.329Z,54.44
2022-09-13T16:14:50.923Z,55.87
2022-09-13T16:17:27.728Z,56.73
2022-09-13T16:19:55.065Z,55.52
2022-09-13T16:22:22.898Z,55.52
2022-09-13T16:24:49.877Z,57.83
2022-09-13T16:27:18.485Z,56.76
2022-09-13T16:29:45.726Z,57.51
2022-09-13T16:32:12.406Z,58.27
2022-09-13T16:34:38.956Z,58.69
2022-09-13T16:37:05.629Z,60.79
2022-09-13T16:39:32.262Z,60.52
2022-09-13T16:41:58.907Z,61.17
2022-09-13T16:44:25.576Z,62.19
2022-09-13T16:46:52.345Z,63.54
2022-09-13T16:49:18.962Z,62.85
2022-09-13T16:51:45.525Z,63.90
2022-09-13T16:54:12.088Z,64.38
2022-09-13T16:56:38.758Z,64.63
2022-09-13T16:59:05.394Z,65.60
2022-09-13T17:01:32.383Z,65.37
2022-09-13T17:03:59.119Z,64.92
2022-09-13T17:06:26.997Z,67.20
2022-09-13T17:08:56.750Z,66.46
2022-09-13T17:11:26.344Z,68.01
2022-09-13T17:13:53.798Z,67.83
2022-09-13T17:16:22.278Z,68.64
2022-09-13T17:18:49.294Z,69.11
2022-09-13T17:21:15.888Z,69.88
2022-09-13T17:23:42.567Z,71.83
2022-09-13T17:26:09.225Z,72.66
2022-09-13T17:28:36.670Z,72.12
2022-09-13T17:31:03.533Z,73.61
2022-09-13T17:33:30.549Z,74.55
2022-09-13T17:36:06.563Z,75.14
2022-09-13T17:38:33.153Z,75.56
2022-09-13T17:41:09.483Z,76.88
2022-09-13T17:43:37.277Z,77.12
2022-09-13T17:46:25.109Z,77.73
2022-09-13T17:48:53.537Z,78.50
2022-09-13T17:51:25.356Z,78.93
2022-09-13T17:54:00.822Z,80.01
2022-09-13T17:56:30.503Z,81.25
2022-09-13T17:59:07.884Z,81.80
2022-09-13T18:01:38.431Z,82.67
2022-09-13T18:04:07.738Z,83.78
2022-09-13T18:06:35.807Z,83.99
2022-09-13T18:09:02.772Z,85.50
2022-09-13T18:11:29.359Z,85.54
2022-09-13T18:13:56.964Z,85.60
2022-09-13T18:16:26.534Z,86.90
2022-09-13T18:18:53.503Z,86.76
2022-09-13T18:21:23.264Z,86.59
2022-09-13T18:23:52.202Z,86.72
2022-09-13T18:26:21.322Z,86.46
2022-09-13T18:28:56.345Z,87.11
2022-09-13T18:31:24.153Z,86.72
2022-09-13T18:33:56.201Z,86.49
2022-09-13T18:36:23.115Z,87.30
2022-09-13T18:38:50.147Z,87.91
2022-09-13T18:41:22.274Z,87.94
2022-09-13T18:43:55.219Z,88.09
2022-09-13T18:46:25.391Z,87.92
2022-09-13T18:48:54.370Z,87.89
2022-09-13T18:51:32.936Z,88.32
2022-09-13T18:54:00.642Z,88.12
2022-09-13T18:56:28.329Z,87.84
2022-09-13T18:58:55.999Z,88.20
2022-09-13T19:01:25.155Z,90.52
2022-09-13T19:04:00.634Z,89.28
2022-09-13T19:06:38.956Z,88.86
2022-09-13T19:09:06.502Z,88.49
2022-09-13T19:11:46.314Z,89.20
2022-09-13T19:14:15.939Z,89.13
2022-09-13T19:16:42.771Z,89.72
2022-09-13T19:19:09.433Z,88.81
2022-09-13T19:21:36.239Z,89.14
2022-09-13T19:24:08.257Z,88.81
2022-09-13T19:26:39.157Z,88.18
2022-09-13T19:29:08.624Z,88.04
2022-09-13T19:31:39.129Z,87.73
2022-09-13T19:34:06.448Z,87.38
2022-09-13T19:36:35.660Z,88.08
2022-09-13T19:39:02.952Z,87.82
2022-09-13T19:41:29.897Z,88.05
2022-09-13T19:44:00.230Z,87.79
2022-09-13T19:46:31.700Z,88.13
2022-09-13T19:49:00.758Z,88.67
2022-09-13T19:51:50.139Z,89.04
2022-09-13T19:54:18.967Z,89.18
2022-09-13T19:56:52.889Z,90.02
2022-09-13T19:59:24.325Z,90.72
2022-09-13T20:01:50.952Z,90.05
2022-09-13T20:04:20.997Z,88.98
2022-09-13T20:06:50.839Z,89.58
2022-09-13T20:09:19.298Z,90.61
2022-09-13T20:11:47.431Z,89.93
2022-09-13T20:14:15.602Z,90.04
2022-09-13T20:16:43.026Z,90.60
2022-09-13T20:22:07.239Z,87.15
2022-09-13T20:24:33.814Z,87.34
2022-09-13T20:27:00.472Z,83.78
2022-09-13T20:29:27.036Z,84.41
2022-09-13T20:31:55.408Z,83.69
2022-09-13T20:34:22.268Z,84.46
2022-09-13T20:36:48.883Z,83.01
2022-09-13T20:39:15.682Z,83.58
2022-09-13T20:41:43.359Z,81.34
2022-09-13T20:44:10.281Z,82.67
2022-09-13T20:46:37.661Z,82.64
2022-09-13T20:49:05.462Z,82.84
2022-09-13T20:51:34.643Z,81.38
2022-09-13T20:54:01.595Z,83.35
2022-09-13T20:56:30.409Z,82.91
2022-09-13T20:59:00.195Z,84.34
2022-09-13T21:01:29.731Z,85.28
2022-09-13T21:03:57.017Z,84.57
2022-09-13T21:06:26.099Z,82.44
2022-09-13T21:08:53.496Z,83.25
2022-09-13T21:11:29.150Z,82.66
2022-09-13T21:13:59.559Z,82.45
2022-09-13T21:16:29.029Z,84.57
2022-09-13T21:18:56.396Z,83.41
2022-09-13T21:21:25.815Z,84.30
2022-09-13T21:23:52.878Z,83.27
2022-09-13T21:26:22.868Z,81.09
2022-09-13T21:28:49.750Z,81.93
2022-09-13T21:31:21.944Z,81.16
2022-09-13T21:33:53.006Z,80.56
2022-09-13T21:36:19.559Z,80.78
2022-09-13T21:38:46.249Z,82.27
2022-09-13T21:41:15.835Z,81.57
2022-09-13T21:43:42.983Z,80.36
2022-09-13T21:46:25.543Z,80.85
2022-09-13T21:48:56.236Z,80.77
2022-09-13T21:51:24.486Z,80.90
2022-09-13T21:53:58.286Z,80.66
2022-09-13T21:56:27.878Z,79.70
2022-09-13T21:58:58.315Z,80.90
2022-09-13T22:01:27.643Z,81.43
2022-09-13T22:03:54.562Z,81.86
2022-09-13T22:06:22.205Z,82.20
2022-09-13T22:08:54.224Z,82.62
2022-09-13T22:11:32.706Z,81.86
2022-09-13T22:14:00.455Z,82.12
2022-09-13T22:16:30.470Z,81.94
2022-09-13T22:19:00.317Z,82.24
2022-09-13T22:21:30.006Z,82.27
2022-09-13T22:23:58.374Z,83.20
2022-09-13T22:26:27.964Z,82.82
2022-09-13T22:28:56.504Z,82.87
2022-09-13T22:31:28.946Z,83.35
2022-09-13T22:33:56.537Z,83.67
2022-09-13T22:36:24.337Z,83.72
2022-09-13T22:38:54.912Z,84.63
2022-09-13T22:41:24.584Z,85.70
2022-09-13T22:43:51.956Z,86.02
2022-09-13T22:46:24.589Z,86.87
2022-09-13T22:48:52.630Z,86.71
2022-09-13T22:51:19.218Z,87.23
2022-09-13T22:53:47.585Z,89.33
2022-09-13T22:56:21.630Z,89.89
2022-09-13T22:58:52.636Z,89.73
2022-09-13T23:01:19.830Z,89.45
2022-09-13T23:03:48.422Z,90.15
2022-09-13T23:06:19.103Z,90.74
2022-09-13T23:08:47.515Z,91.31
2022-09-13T23:11:17.866Z,92.66
2022-09-13T23:13:46.199Z,93.14
2022-09-13T23:16:17.469Z,94.17
2022-09-13T23:18:44.109Z,93.53
2022-09-13T23:21:10.735Z,93.90
2022-09-13T23:23:37.730Z,94.04
2022-09-13T23:26:11.499Z,94.28
2022-09-13T23:28:39.424Z,95.30
2022-09-13T23:31:21.397Z,95.99
2022-09-13T23:33:50.847Z,96.55
2022-09-13T23:36:22.243Z,96.39
2022-09-13T23:38:51.077Z,97.81
2022-09-13T23:41:19.107Z,97.03
2022-09-13T23:43:46.580Z,97.92
2022-09-13T23:46:14.192Z,98.24
2022-09-13T23:48:43.902Z,98.59
2022-09-13T23:51:13.572Z,98.91
2022-09-13T23:53:41.270Z,99.72
2022-09-13T23:56:08.586Z,100.00
2022-09-13T23:58:36.757Z,99.48
